^^
Grace C. Lehan Memorial Weather Station Historical Data
Daily Summary for September 9, 2021 Units:  English    Metric   Both
Daily Weekly Monthly Yearly
  High: Low: Average:
Temperature: 74.5 °F 66 °F 72.3 °F
Dew Point: 71.4 °F 64.5 °F 70 °F
Humidity: 95% 89% 93%
Wind Speed: 0.3mph 0mph 0mph
Wind Gust: 4mph - -
Wind- - SSW
Pressure: 29.77 in 29.68 in -
Precipitation: 0.02 in    
 
 
Tabular Data for September 9, 2021
Time Temperature Dew Point Pressure Wind Wind Speed Wind Gust Humidity Rainfall Rate (Hourly) solar
00:00 74.2 °F 70.8 °F 29.77 in Calm   2 mph 89% 0.00 in 0 W/m2
00:09 74.2 °F 70.8 °F 29.77 in South 0.1 mph 2 mph 89% 0.00 in 0 W/m2
00:14 74.2 °F 70.8 °F 29.76 in Calm   2 mph 89% 0.00 in 0 W/m2
00:19 74.3 °F 70.8 °F 29.76 in Calm   2 mph 89% 0.00 in 0 W/m2
00:24 74.3 °F 70.8 °F 29.76 in Calm   2 mph 89% 0.00 in 0 W/m2
00:29 74.3 °F 70.9 °F 29.76 in Calm   2 mph 89.2% 0.00 in 0 W/m2
00:34 74.3 °F 71.1 °F 29.76 in Calm   2 mph 90% 0.00 in 0 W/m2
00:39 74.2 °F 71.1 °F 29.76 in Calm     90% 0.00 in 0 W/m2
00:44 74.2 °F 71.1 °F 29.76 in Calm     90% 0.00 in 0 W/m2
00:49 74.2 °F 71.1 °F 29.75 in Calm     90% 0.00 in 0 W/m2
00:54 74.3 °F 71.2 °F 29.75 in Calm     90% 0.00 in 0 W/m2
00:59 74.3 °F 71.2 °F 29.75 in South 0.1 mph 2 mph 90% 0.00 in 0 W/m2
01:04 74.3 °F 71.2 °F 29.75 in Calm   2 mph 90% 0.00 in 0 W/m2
01:09 74.4 °F 71.2 °F 29.75 in Calm     90% 0.00 in 0 W/m2
01:14 74.4 °F 71.3 °F 29.75 in Calm     90% 0.00 in 0 W/m2
01:19 74.4 °F 71.3 °F 29.75 in SSW 0.1 mph 2 mph 90% 0.00 in 0 W/m2
01:24 74.5 °F 71.2 °F 29.75 in Calm   2 mph 89.5% 0.00 in 0 W/m2
01:29 74.5 °F 71.1 °F 29.75 in SSW 0.1 mph 2 mph 89.1% 0.00 in 0 W/m2
01:34 74.5 °F 71.4 °F 29.75 in SSW 0.1 mph 2 mph 90% 0.00 in 0 W/m2
01:39 74.5 °F 71.4 °F 29.75 in SSW 0.1 mph 2 mph 90% 0.00 in 0 W/m2
01:44 74.5 °F 71.4 °F 29.75 in SSW 0.2 mph 3 mph 90% 0.00 in 0 W/m2
01:49 74.5 °F 71.4 °F 29.75 in Calm   3 mph 90% 0.00 in 0 W/m2
01:54 74.5 °F 71.1 °F 29.75 in Calm   3 mph 89.2% 0.00 in 0 W/m2
01:59 74.4 °F 71 °F 29.75 in Calm   3 mph 89% 0.00 in 0 W/m2
02:04 74.4 °F 71.2 °F 29.75 in Calm   3 mph 89.8% 0.00 in 0 W/m2
02:09 74.4 °F 71.3 °F 29.75 in Calm     90% 0.00 in 0 W/m2
02:14 74.4 °F 71.3 °F 29.75 in Calm     90% 0.00 in 0 W/m2
02:19 74.4 °F 71.3 °F 29.75 in Calm     90% 0.00 in 0 W/m2
02:24 74.4 °F 71.3 °F 29.74 in Calm     90% 0.00 in 0 W/m2
02:29 74.4 °F 71 °F 29.74 in Calm     89.1% 0.00 in 0 W/m2
02:34 74.4 °F 70.9 °F 29.74 in Calm     89% 0.00 in 0 W/m2
02:39 74.4 °F 70.9 °F 29.73 in Calm     89% 0.00 in 0 W/m2
02:44 74.4 °F 70.9 °F 29.73 in Calm     89% 0.00 in 0 W/m2
02:49 74.4 °F 70.9 °F 29.72 in Calm     89% 0.00 in 0 W/m2
02:54 74.4 °F 70.9 °F 29.72 in Calm     89% 0.00 in 0 W/m2
02:59 74.4 °F 70.9 °F 29.72 in Calm     89% 0.00 in 0 W/m2
03:04 74.4 °F 70.9 °F 29.72 in Calm     89% 0.00 in 0 W/m2
03:09 74.4 °F 70.9 °F 29.73 in Calm     89% 0.00 in 0 W/m2
03:14 74.4 °F 71.2 °F 29.73 in Calm     89.9% 0.00 in 0 W/m2
03:19 74.4 °F 71.3 °F 29.72 in Calm     90% 0.00 in 0 W/m2
03:24 74.3 °F 71.2 °F 29.72 in Calm     90% 0.00 in 0 W/m2
03:29 74.3 °F 71.2 °F 29.72 in Calm     90% 0.00 in 0 W/m2
03:34 74.2 °F 71.1 °F 29.72 in Calm     90% 0.00 in 0 W/m2
03:39 74.2 °F 71 °F 29.72 in Calm     90% 0.00 in 0 W/m2
03:44 74.1 °F 70.9 °F 29.72 in Calm     90% 0.00 in 0 W/m2
03:49 73.8 °F 70.3 °F 29.71 in Calm     89.1% 0.00 in 0 W/m2
03:54 73.5 °F 70 °F 29.71 in Calm     89% 0.00 in 0 W/m2
03:59 73.3 °F 69.8 °F 29.71 in Calm     89% 0.00 in 0 W/m2
04:00 73.1 °F 69.7 °F 29.71 in Calm     89% 0.00 in 0 W/m2
04:09 72.9 °F 69.8 °F 29.72 in Calm     89.9% 0.00 in 0 W/m2
04:14 72.8 °F 69.7 °F 29.72 in Calm     90% 0.00 in 0 W/m2
04:19 72.8 °F 69.9 °F 29.72 in Calm     90.6% 0.00 in 0 W/m2
04:24 72.7 °F 69.9 °F 29.72 in SSW 0.3 mph 4 mph 91% 0.00 in 0 W/m2
04:29 72.7 °F 69.9 °F 29.72 in SSW 0.1 mph 4 mph 91% 0.00 in 0 W/m2
04:34 72.7 °F 70.3 °F 29.72 in Calm   4 mph 92% 0.00 in 0 W/m2
04:39 72.6 °F 70.2 °F 29.72 in Calm     92% 0.00 in 0 W/m2
04:44 72.6 °F 70.2 °F 29.73 in Calm     92% 0.00 in 0 W/m2
04:49 72.5 °F 70.1 °F 29.73 in Calm     92% 0.00 in 0 W/m2
04:54 72.4 °F 70 °F 29.73 in Calm     92% 0.00 in 0 W/m2
04:59 72.4 °F 69.9 °F 29.73 in Calm     92% 0.00 in 0 W/m2
05:04 72.4 °F 69.9 °F 29.73 in Calm     92% 0.00 in 0 W/m2
05:09 72.3 °F 69.8 °F 29.73 in Calm     92% 0.00 in 0 W/m2
05:14 72.3 °F 70.2 °F 29.73 in Calm     93% 0.00 in 0 W/m2
05:19 72.3 °F 70.2 °F 29.73 in Calm     93% 0.00 in 0 W/m2
05:24 72.3 °F 70.2 °F 29.73 in Calm     93% 0.00 in 0 W/m2
05:29 72.3 °F 70.2 °F 29.73 in Calm     93% 0.00 in 0 W/m2
05:34 72.3 °F 70.2 °F 29.73 in Calm     93% 0.00 in 0 W/m2
05:39 72.3 °F 70.2 °F 29.72 in Calm     93% 0.00 in 0 W/m2
05:44 72.3 °F 70.2 °F 29.72 in Calm     93% 0.00 in 0 W/m2
05:49 72.3 °F 70.4 °F 29.72 in Calm     93.8% 0.00 in 0 W/m2
05:54 72.4 °F 70.6 °F 29.72 in Calm     94% 0.00 in 0 W/m2
05:59 72.4 °F 70.6 °F 29.72 in Calm     94% 0.00 in 0 W/m2
06:04 72.4 °F 70.6 °F 29.72 in Calm     94% 0.00 in 0 W/m2
06:09 72.4 °F 70.6 °F 29.73 in Calm     94% 0.00 in 0 W/m2
06:14 72.4 °F 70.6 °F 29.72 in Calm     94% 0.00 in 0 W/m2
06:19 72.4 °F 70.6 °F 29.73 in Calm     94% 0.00 in 0 W/m2
06:24 72.3 °F 70.5 °F 29.73 in Calm     94% 0.00 in 0 W/m2
06:29 72.3 °F 70.5 °F 29.73 in Calm     94% 0.00 in 0 W/m2
06:34 72.2 °F 70.4 °F 29.74 in Calm     94% 0.00 in 0 W/m2
06:39 72.2 °F 70.4 °F 29.74 in Calm     94% 0.00 in 7 W/m2
06:41 72.2 °F 70.4 °F 29.74 in Calm     94% 0.00 in 7 W/m2
07:00 72 °F 70.2 °F 29.75 in Calm     94% 0.00 in 11 W/m2
07:30 72.1 °F 70.3 °F 29.75 in Calm     94% 0.00 in 20 W/m2
08:04 72.4 °F 70.6 °F 29.76 in Calm     94% 0.00 in 14 W/m2
08:09 72.5 °F 70.7 °F 29.77 in Calm     94% 0.00 in 18 W/m2
08:14 72.6 °F 70.8 °F 29.77 in Calm     94% 0.00 in 28 W/m2
08:19 72.6 °F 70.8 °F 29.76 in Calm     94% 0.00 in 33 W/m2
08:24 72.6 °F 70.8 °F 29.75 in Calm     94% 0.01 in 32 W/m2
08:29 72.7 °F 70.8 °F 29.75 in Calm     94% 0.02 in 26 W/m2
08:34 72.7 °F 70.9 °F 29.75 in Calm     94% 0.02 in 35 W/m2
08:39 72.7 °F 70.9 °F 29.75 in Calm     94% 0.02 in 53 W/m2
08:44 72.7 °F 70.9 °F 29.75 in Calm     94% 0.02 in 54 W/m2
08:49 72.7 °F 70.9 °F 29.75 in Calm     94% 0.02 in 58 W/m2
08:54 72.6 °F 70.8 °F 29.75 in Calm     94% 0.02 in 77 W/m2
08:59 72.6 °F 70.7 °F 29.75 in Calm     94% 0.02 in 88 W/m2
09:04 72.5 °F 70.7 °F 29.74 in Calm     94% 0.02 in 118 W/m2
09:09 72.4 °F 70.6 °F 29.74 in Calm     94% 0.00 in 141 W/m2
09:14 72.5 °F 70.7 °F 29.74 in Calm     94% 0.00 in 104 W/m2
09:19 72.7 °F 70.9 °F 29.74 in Calm   1 mph 94% 0.00 in 100 W/m2
09:24 72.7 °F 70.9 °F 29.74 in Calm   1 mph 93.9% 0.00 in 72 W/m2
09:29 72.6 °F 70.5 °F 29.74 in Calm   1 mph 93.2% 0.00 in 69 W/m2
09:34 72.5 °F 70.4 °F 29.74 in Calm   1 mph 93.2% 0.00 in 74 W/m2
09:39 72.5 °F 70.6 °F 29.74 in Calm     93.7% 0.00 in 62 W/m2
09:44 72.3 °F 70.2 °F 29.75 in Calm     93% 0.00 in 79 W/m2
09:49 72.2 °F 70.1 °F 29.74 in Calm     93% 0.00 in 151 W/m2
09:54 72.1 °F 70.1 °F 29.75 in SSW 0.1 mph 1 mph 93.4% 0.00 in 148 W/m2
09:59 72.1 °F 70 °F 29.75 in SW 0.1 mph 2 mph 93.2% 0.00 in 95 W/m2
10:04 72 °F 69.9 °F 29.75 in Calm   2 mph 93% 0.00 in 81 W/m2
10:09 71.9 °F 69.8 °F 29.75 in Calm   1 mph 93% 0.00 in 104 W/m2
10:14 71.9 °F 69.8 °F 29.76 in Calm   1 mph 93% 0.00 in 102 W/m2
10:19 71.9 °F 69.8 °F 29.76 in Calm   1 mph 93% 0.00 in 84 W/m2
10:24 71.9 °F 69.5 °F 29.76 in Calm   1 mph 92.4% 0.01 in 46 W/m2
10:29 71.8 °F 69.3 °F 29.76 in Calm   1 mph 92% 0.02 in 44 W/m2
10:34 71.7 °F 69.3 °F 29.76 in Calm   1 mph 92% 0.03 in 44 W/m2
10:39 71.6 °F 69.2 °F 29.76 in Calm     92% 0.03 in 46 W/m2
10:44 71.6 °F 69.4 °F 29.75 in Calm     92.9% 0.04 in 53 W/m2
10:49 71.6 °F 69.5 °F 29.75 in Calm     93% 0.04 in 67 W/m2
10:54 71.6 °F 69.5 °F 29.75 in Calm     93% 0.04 in 84 W/m2
10:59 71.7 °F 69.6 °F 29.75 in Calm     93% 0.04 in 90 W/m2
11:04 71.7 °F 69.6 °F 29.75 in Calm   1 mph 93% 0.04 in 91 W/m2
11:09 71.7 °F 69.8 °F 29.75 in Calm   1 mph 93.6% 0.04 in 97 W/m2
11:14 71.7 °F 69.8 °F 29.75 in Calm   1 mph 93.8% 0.04 in 98 W/m2
11:19 71.7 °F 69.7 °F 29.75 in Calm   1 mph 93.5% 0.04 in 98 W/m2
11:24 71.8 °F 70 °F 29.76 in Calm   1 mph 94% 0.04 in 123 W/m2
11:29 71.9 °F 70.1 °F 29.76 in Calm   1 mph 94% 0.05 in 125 W/m2
11:34 72.1 °F 70.3 °F 29.76 in Calm   1 mph 94% 0.05 in 121 W/m2
11:39 72.3 °F 70.5 °F 29.76 in Calm     94% 0.04 in 72 W/m2
11:44 72.4 °F 70.6 °F 29.75 in Calm     94% 0.04 in 47 W/m2
11:49 72.4 °F 70.6 °F 29.75 in Calm     94% 0.06 in 32 W/m2
11:54 72.4 °F 70.6 °F 29.75 in Calm     94% 0.07 in 40 W/m2
11:59 72.4 °F 70.6 °F 29.75 in Calm     94% 0.07 in 37 W/m2
12:09 72.4 °F 70.6 °F 29.75 in Calm     94% 0.08 in 40 W/m2
12:14 72.4 °F 70.6 °F 29.75 in Calm     94% 0.08 in 49 W/m2
12:19 72.4 °F 70.6 °F 29.75 in Calm     94% 0.09 in 53 W/m2
12:24 72.4 °F 70.6 °F 29.75 in Calm     94% 0.09 in 56 W/m2
12:29 72.4 °F 70.6 °F 29.75 in Calm     94% 0.09 in 84 W/m2
12:34 72.4 °F 70.6 °F 29.74 in Calm     94% 0.09 in 105 W/m2
12:39 72.3 °F 70.5 °F 29.74 in Calm     94% 0.06 in 111 W/m2
12:44 72.4 °F 70.6 °F 29.74 in Calm     94% 0.06 in 113 W/m2
12:49 72.3 °F 70.5 °F 29.74 in Calm     94% 0.06 in 116 W/m2
12:54 72.3 °F 70.5 °F 29.74 in Calm     94% 0.07 in 123 W/m2
12:59 72.4 °F 70.6 °F 29.74 in Calm     94% 0.07 in 127 W/m2
13:04 72.5 °F 70.7 °F 29.74 in Calm     94% 0.07 in 141 W/m2
13:09 72.6 °F 70.8 °F 29.74 in Calm     94% 0.01 in 134 W/m2
13:14 72.8 °F 71 °F 29.73 in Calm     94% 0.01 in 113 W/m2
13:19 72.9 °F 71.1 °F 29.73 in Calm     94% 0.01 in 74 W/m2
13:24 72.8 °F 71 °F 29.73 in Calm     94% 0.01 in 70 W/m2
13:29 72.7 °F 70.7 °F 29.73 in Calm     93.3% 0.01 in 105 W/m2
13:34 72.7 °F 70.6 °F 29.74 in Calm     93% 0.01 in 137 W/m2
13:39 72.7 °F 70.6 °F 29.73 in Calm     93% 0.02 in 125 W/m2
13:44 72.7 °F 70.6 °F 29.74 in Calm     93% 0.02 in 91 W/m2
13:49 72.7 °F 70.7 °F 29.74 in Calm     93.1% 0.02 in 76 W/m2
13:54 72.9 °F 71.1 °F 29.74 in Calm     94% 0.03 in 63 W/m2
13:59 73 °F 71.2 °F 29.74 in Calm     94% 0.03 in 56 W/m2
14:04 73.1 °F 71.3 °F 29.73 in Calm     94% 0.03 in 58 W/m2
14:09 73.1 °F 71 °F 29.73 in Calm     93% 0.02 in 81 W/m2
14:14 73.2 °F 71 °F 29.73 in Calm     93% 0.02 in 142 W/m2
14:19 73.2 °F 71.1 °F 29.73 in Calm     93% 0.02 in 199 W/m2
14:24 73.3 °F 71.1 °F 29.73 in Calm     93% 0.02 in 199 W/m2
14:29 73.4 °F 71.2 °F 29.73 in Calm   2 mph 93% 0.02 in 176 W/m2
14:34 73.2 °F 70.8 °F 29.73 in Calm   2 mph 92.2% 0.02 in 176 W/m2
14:39 73.3 °F 70.9 °F 29.73 in Calm     92.3% 0.02 in 160 W/m2
14:44 73.3 °F 70.8 °F 29.73 in Calm     92% 0.02 in 155 W/m2
14:49 73.3 °F 70.8 °F 29.73 in Calm     92% 0.02 in 114 W/m2
14:54 73.5 °F 71 °F 29.72 in Calm     92% 0.02 in 98 W/m2
14:59 73.4 °F 71 °F 29.72 in Calm     92% 0.03 in 100 W/m2
15:04 73.4 °F 70.9 °F 29.73 in Calm     91.8% 0.03 in 105 W/m2
15:09 73.4 °F 70.9 °F 29.73 in Calm     92% 0.01 in 93 W/m2
15:14 73.4 °F 71 °F 29.72 in Calm     92% 0.01 in 93 W/m2
15:19 73.5 °F 71 °F 29.72 in Calm     92% 0.01 in 93 W/m2
15:24 73.5 °F 71 °F 29.72 in Calm     92% 0.01 in 88 W/m2
15:29 73.4 °F 70.8 °F 29.72 in Calm     91.8% 0.01 in 60 W/m2
15:34 73.3 °F 70.6 °F 29.72 in Calm     91.4% 0.01 in 39 W/m2
15:39 73.2 °F 70.7 °F 29.72 in Calm     91.8% 0.01 in 42 W/m2
15:44 73 °F 70.3 °F 29.71 in Calm     91% 0.01 in 47 W/m2
15:49 72.9 °F 70.2 °F 29.70 in Calm     91.3% 0.01 in 58 W/m2
15:54 72.7 °F 70 °F 29.70 in Calm     91.1% 0.01 in 62 W/m2
15:59 72.6 °F 70.1 °F 29.70 in Calm     91.8% 0.01 in 62 W/m2
16:00 72.6 °F 70.2 °F 29.70 in Calm     92% 0.01 in 60 W/m2
16:09 72.6 °F 70.2 °F 29.69 in Calm     92% 0.00 in 60 W/m2
16:14 72.5 °F 70.1 °F 29.70 in Calm     92% 0.00 in 39 W/m2
16:19 72.4 °F 69.7 °F 29.70 in Calm     91.4% 0.00 in 39 W/m2
16:24 72.1 °F 69.3 °F 29.70 in Calm     91% 0.00 in 33 W/m2
16:29 71.9 °F 69.1 °F 29.70 in Calm     91% 0.00 in 32 W/m2
16:34 71.7 °F 69 °F 29.70 in Calm     91% 0.00 in 32 W/m2
16:39 71.6 °F 68.8 °F 29.70 in Calm     91% 0.00 in 30 W/m2
16:44 71.5 °F 68.7 °F 29.70 in Calm     91% 0.00 in 26 W/m2
16:49 71.4 °F 68.6 °F 29.70 in Calm     91% 0.00 in 25 W/m2
16:54 71.3 °F 68.8 °F 29.69 in Calm     91.9% 0.01 in 25 W/m2
16:59 71.2 °F 68.7 °F 29.69 in Calm     92% 0.01 in 23 W/m2
17:04 71 °F 68.5 °F 29.70 in Calm     91.8% 0.02 in 19 W/m2
17:09 70.9 °F 68.4 °F 29.70 in Calm     92% 0.02 in 23 W/m2
17:14 70.8 °F 68.4 °F 29.71 in Calm     92% 0.02 in 25 W/m2
17:19 70.7 °F 68.4 °F 29.71 in Calm     92.5% 0.02 in 18 W/m2
17:24 70.5 °F 68.1 °F 29.71 in Calm     92% 0.03 in 19 W/m2
17:29 70.4 °F 67.9 °F 29.71 in Calm     92% 0.03 in 19 W/m2
17:34 70.3 °F 68.1 °F 29.71 in Calm     92.8% 0.03 in 19 W/m2
17:39 70.3 °F 68.2 °F 29.71 in Calm     93% 0.03 in 19 W/m2
17:44 70.2 °F 68.1 °F 29.71 in Calm     93% 0.03 in 18 W/m2
17:49 70.1 °F 68 °F 29.71 in Calm     93% 0.03 in 18 W/m2
17:54 70 °F 67.9 °F 29.70 in Calm     93% 0.03 in 16 W/m2
17:59 70 °F 67.8 °F 29.70 in Calm     93% 0.04 in 12 W/m2
18:04 69.9 °F 67.8 °F 29.70 in Calm     93% 0.04 in 11 W/m2
18:09 69.9 °F 67.7 °F 29.70 in Calm     93% 0.03 in 11 W/m2
18:14 69.8 °F 67.9 °F 29.70 in Calm     93.6% 0.03 in 11 W/m2
18:19 69.7 °F 67.8 °F 29.70 in Calm     93.8% 0.04 in 12 W/m2
18:24 69.7 °F 67.9 °F 29.70 in Calm     94% 0.04 in 12 W/m2
18:29 69.7 °F 67.9 °F 29.70 in Calm     94% 0.04 in 12 W/m2
18:34 69.7 °F 67.9 °F 29.70 in Calm     94% 0.04 in 7 W/m2
18:39 69.7 °F 67.9 °F 29.70 in Calm     94% 0.02 in 5 W/m2
18:44 69.7 °F 67.9 °F 29.70 in Calm     94% 0.02 in 0 W/m2
18:49 69.6 °F 67.8 °F 29.70 in Calm     94% 0.02 in 0 W/m2
18:54 69.6 °F 67.8 °F 29.70 in Calm     94% 0.02 in 0 W/m2
18:59 69.6 °F 67.8 °F 29.70 in Calm     94.1% 0.02 in 0 W/m2
19:04 69.6 °F 68.1 °F 29.69 in Calm     95% 0.02 in 0 W/m2
19:09 69.6 °F 68.1 °F 29.70 in Calm     95% 0.02 in 0 W/m2
19:14 69.6 °F 68.1 °F 29.70 in Calm     95% 0.02 in 0 W/m2
19:19 69.6 °F 68.1 °F 29.69 in Calm     95% 0.02 in 0 W/m2
19:24 69.6 °F 68.1 °F 29.69 in Calm     95% 0.02 in 0 W/m2
19:29 69.6 °F 68.1 °F 29.69 in Calm     95% 0.02 in 0 W/m2
19:34 69.6 °F 68.1 °F 29.69 in Calm     95% 0.02 in 0 W/m2
19:39 69.5 °F 68 °F 29.69 in Calm     95% 0.01 in 0 W/m2
19:44 69.5 °F 68 °F 29.69 in Calm     95% 0.01 in 0 W/m2
19:49 69.5 °F 68 °F 29.69 in Calm     95% 0.01 in 0 W/m2
19:54 69.5 °F 68 °F 29.69 in Calm     95% 0.01 in 0 W/m2
19:59 69.5 °F 68 °F 29.70 in Calm     95% 0.01 in 0 W/m2
20:00 69.5 °F 68 °F 29.70 in Calm     95% 0.01 in 0 W/m2
20:09 69.5 °F 68 °F 29.70 in Calm   1 mph 95% 0.01 in 0 W/m2
20:14 69.5 °F 68 °F 29.69 in Calm   1 mph 95% 0.02 in 0 W/m2
20:19 69.4 °F 67.9 °F 29.69 in Calm   1 mph 95% 0.02 in 0 W/m2
20:23 69.4 °F 67.9 °F 29.69 in Calm   1 mph 95% 0.02 in 0 W/m2
20:30 69.3 °F 67.8 °F 29.69 in Calm   1 mph 95% 0.03 in 0 W/m2
21:00 68.4 °F 66.9 °F 29.70 in Calm   1 mph 95% 0.02 in 0 W/m2
21:30 67.6 °F 66.1 °F 29.68 in Calm     95% 0.02 in 0 W/m2
22:00 67.2 °F 65.7 °F 29.70 in Calm     95% 0.00 in 0 W/m2
23:00 66.2 °F 64.7 °F 29.70 in Calm   3 mph 95% 0.00 in 0 W/m2
23:30 66 °F 64.5 °F 29.70 in Calm     95% 0.00 in 0 W/m2
Hartford County Weather
Compliments of Weather Underground - 2 mb